Main page
METAR-TAF:

METAR-TAF

Airports :

Murcia–San Javier Airport

Murcia, Spain

latitude: 37-47N, longitude: 000-48W, elevation: 5 m

Current weather observation

The report was made 24 minutes ago, at 19:00 UTC
Wind 5 kt from the South/Southeast, varying between East/Southeast and South
Temperature 21°C
Humidity 69%
Pressure 1013 hPa
Visibility 10 km or more
no clouds below 1500 m and no cumulonimbus

METAR: LELC 171900Z 16005KT 120V190 CAVOK 21/15 Q1013 NOSIG

Time: 21:24 (19:24 UTC)

Forecast

The report was made 2 hours and 24 minutes ago, at 17:00 UTC
Forecast valid from 17 at 18 UTC to 18 at 18 UTC
Wind 4 kt from the West/Southwest
Visibility 10 km or more
Few clouds at a height of 2500 ft
Probability 30% :
Temporary
from 18 at 12 UTC to 18 at 18 UTC
Visibility: 4000 m
Scattered clouds at a height of 2000 ft, Towering cumulus.
Scattered clouds at a height of 3500 ft
rain showers

TAF: LELC 171700Z 1718/1818 24004KT 9999 FEW025 TX23/1814Z TN16/1806Z PROB30 TEMPO 1812/1818 4000 SHRA SCT020TCU SCT035

Weather observations and forecasts of more than 4000 airports (METAR and TAF reports).

The available stations are represented by yellow and red dots on the map.

Hover mouse over dot to see the name of the station.

Then click to see weather observations and forecasts.

To change the map : click on the green buttons with a black cross to zoom in, on the green button with a dash to zoom out, or on the green arrows for adjacent maps.


METAR-TAF: